Date,TemperatureHighF,TemperatureAvgF,TemperatureLowF,DewpointHighF,DewpointAvgF,DewpointLowF,HumidityHigh,HumidityAvg,HumidityLow,PressureMaxIn,PressureMinIn,WindSpeedMaxMPH,WindSpeedAvgMPH,GustSpeedMaxMPH,PrecipitationSumIn
2013-1-30,24,21,11,20,15,7,84,77,61,30.21,30.14,11,6,19,0.00
2013-1-31,36,29,18,22,18,14,84,65,47,30.34,30.26,6,2,11,0.06
2013-2-1,42,30,19,19,15,11,77,55,34,30.36,30.27,11,4,20,0.05
2013-2-2,41,28,14,18,14,7,75,56,34,30.45,30.35,7,2,13,0.01
2013-2-3,42,29,20,26,15,4,94,59,24,30.35,30.16,10,2,17,0.01
2013-2-4,40,27,15,26,18,9,95,71,36,30.21,30.16,7,1,11,0.01
2013-2-5,48,31,17,20,14,8,71,50,26,30.22,30.09,8,3,14,0.01
2013-2-6,47,33,23,27,20,14,91,62,31,30.17,30.04,11,3,20,0.00
2013-2-7,41,29,20,26,18,10,93,66,28,30.25,30.12,6,1,14,0.03
2013-2-8,43,33,22,26,15,8,72,49,28,30.12,29.83,17,6,35,0.01
2013-2-9,33,24,19,23,20,13,91,82,43,29.85,29.72,9,3,18,0.03
2013-2-10,27,20,14,21,15,10,91,83,64,29.95,29.84,6,1,11,0.13
2013-2-11,27,19,14,19,15,10,91,84,61,30.09,29.93,7,1,12,0.01
2013-2-12,26,15,4,20,10,0,91,79,63,30.22,30.09,7,1,11,0.00
2013-2-13,33,20,4,21,13,0,91,74,54,30.23,30.18,7,1,13,0.02
2013-2-14,32,21,11,22,14,8,90,75,56,30.29,30.16,8,2,14,0.02
2013-2-15,32,22,8,18,10,4,91,62,44,30.41,30.28,9,3,16,0.02
2013-2-16,44,30,13,14,8,4,68,41,24,30.42,30.21,9,4,15,0.03
2013-2-17,47,36,26,22,5,-5,85,30,12,30.21,29.87,16,7,25,0.02
2013-2-18,33,21,5,22,8,-1,92,62,24,30.14,29.96,9,2,14,0.09
2013-2-19,43,26,9,8,1,-9,64,37,16,30.11,29.83,7,2,10,0.01
2013-2-20,32,27,21,24,17,5,91,68,42,29.83,29.72,9,1,17,0.01
2013-2-21,29,24,21,25,21,19,92,88,80,29.95,29.76,6,1,11,0.04
2013-2-22,24,19,9,21,16,5,92,88,83,30.10,29.94,7,2,13,0.01
2013-2-23,33,20,8,27,14,3,91,79,51,30.10,29.82,8,3,20,0.05
2013-2-24,21,16,4,16,11,1,90,82,72,30.08,29.86,8,2,15,0.01
2013-2-25,31,19,11,21,14,8,90,79,59,30.16,29.99,6,1,12,0.01
2013-2-26,24,18,11,19,14,8,90,82,76,30.17,29.92,10,3,17,0.01
2013-2-27,28,16,3,16,8,-1,91,73,46,30.30,30.17,8,2,13,0.00
2013-2-28,34,21,3,15,7,-3,79,57,37,30.40,30.28,6,3,12,0.03
2013-3-1,39,29,21,23,18,11,77,65,49,30.47,30.38,7,2,12,0.09
2013-3-2,52,35,20,24,20,15,83,57,26,30.47,30.27,7,2,11,0.02
2013-3-3,48,41,35,29,20,16,77,44,30,30.28,29.99,10,4,20,0.01
2013-3-4,42,32,16,34,25,10,94,79,54,30.24,29.97,14,4,27,0.20
2013-3-5,49,27,8,19,12,3,85,56,19,30.32,30.22,5,2,9,0.01
2013-3-6,56,40,27,19,14,8,60,36,15,30.22,30.08,10,4,20,0.00
2013-3-7,56,41,27,19,13,4,63,37,13,30.14,30.06,10,3,25,0.00
2013-3-8,47,36,25,30,21,11,93,58,29,30.09,29.86,10,4,22,0.00
2013-3-9,29,26,23,26,23,18,93,86,65,30.11,29.80,8,2,15,0.10
2013-3-10,36,26,15,21,17,12,93,71,44,30.29,30.11,7,2,15,0.16
2013-3-11,43,30,16,22,17,10,83,58,39,30.28,30.19,7,2,12,0.01
2013-3-12,49,37,28,27,23,19,78,58,39,30.37,30.23,8,2,16,0.00
2013-3-13,55,40,28,26,20,15,77,48,23,30.43,30.36,7,4,13,0.00
2013-3-14,60,46,32,22,18,14,54,34,18,30.46,30.38,9,4,16,0.00
2013-3-15,60,50,42,23,19,16,38,30,20,30.39,30.16,9,5,17,0.00
2013-3-16,46,40,33,37,29,21,94,66,37,30.16,30.03,14,4,22,0.04
2013-3-17,50,40,31,31,19,9,85,46,24,30.06,29.93,16,7,29,0.01
2013-3-18,45,35,25,12,10,5,57,36,21,30.15,30.04,15,6,28,0.00
2013-3-19,46,36,28,17,11,4,60,37,18,30.29,30.14,7,2,14,0.00
2013-3-20,44,36,27,30,15,3,71,43,20,30.29,30.03,12,4,25,0.00
2013-3-21,46,37,23,34,23,4,92,59,26,30.03,29.89,15,5,38,0.04
2013-3-22,46,32,21,15,9,4,62,39,20,30.02,29.80,19,6,35,0.01
2013-3-23,25,18,9,14,8,2,87,68,49,30.14,29.91,9,3,22,0.00
2013-3-24,30,18,8,9,3,-2,73,52,32,30.16,30.07,11,5,19,0.06
2013-3-25,39,24,7,9,5,-1,78,48,19,30.22,30.15,8,3,14,0.02
2013-3-26,54,40,29,20,14,9,58,37,19,30.21,30.09,15,5,27,0.01
2013-3-27,57,44,30,21,16,11,60,34,16,30.19,30.10,10,4,24,0.00
2013-3-28,58,48,38,22,17,13,42,30,17,30.25,30.18,10,5,20,0.00
2013-3-29,61,48,37,27,22,18,61,37,19,30.31,30.24,10,4,22,0.00
2013-3-30,57,45,32,33,26,-100,74,49,31,30.31,30.22,11,4,22,0.00
2013-3-31,60,47,35,32,22,12,76,42,15,30.27,30.16,9,5,18,0.00
2013-4-1,60,48,35,35,23,12,92,44,17,30.19,30.03,15,6,31,0.02
2013-4-2,52,38,30,31,24,15,93,61,24,30.15,30.04,8,3,18,0.01
2013-4-3,54,39,29,36,27,20,94,67,29,30.29,30.15,9,2,19,0.01
2013-4-4,62,48,33,28,22,19,61,38,19,30.32,30.22,9,4,18,0.01
2013-4-5,60,49,41,31,24,15,56,38,25,30.23,30.06,14,5,26,0.00
2013-4-6,57,45,29,33,24,10,87,51,16,30.16,30.07,14,3,24,0.00
2013-4-7,57,45,33,34,27,20,91,55,26,30.14,29.94,12,4,23,0.01
2013-4-8,52,41,32,36,25,14,94,57,27,29.94,29.65,27,6,39,0.21
2013-4-9,34,27,16,30,24,13,94,90,75,30.02,29.66,10,3,17,0.23
2013-4-10,32,20,9,26,16,6,91,84,73,30.12,30.02,8,3,15,0.18
2013-4-11,42,32,22,34,27,16,92,80,67,30.11,30.03,8,2,13,0.11
2013-4-12,52,40,31,29,25,20,82,58,32,30.10,30.04,9,4,19,0.01
2013-4-13,55,46,33,25,19,13,55,35,20,30.10,29.72,19,10,41,0.00
2013-4-14,49,38,30,35,26,16,95,66,26,29.96,29.82,15,5,34,0.20
2013-4-15,52,40,28,33,28,23,94,66,36,29.89,29.76,20,9,36,0.02
2013-4-16,61,48,30,31,19,11,92,37,14,29.94,29.76,18,8,37,0.00
2013-4-17,32,24,16,29,22,11,95,90,83,30.12,29.85,10,4,18,0.00
2013-4-18,28,20,12,20,14,9,90,78,60,30.32,30.11,11,2,18,0.28
2013-4-19,44,31,16,23,16,9,78,56,36,30.31,30.16,12,4,21,0.11
2013-4-20,42,34,28,37,29,21,95,84,62,30.22,30.11,8,3,14,0.12
2013-4-21,57,41,27,32,23,10,94,57,16,30.26,30.17,8,4,21,0.14
2013-4-22,61,49,39,30,24,16,65,40,18,30.19,30.01,16,6,33,0.01
2013-4-23,41,31,27,29,24,14,93,75,46,30.22,30.09,10,4,17,0.20
2013-4-24,52,37,26,20,14,9,63,42,23,30.27,30.16,11,4,18,0.01
2013-4-25,61,45,28,25,18,14,67,37,18,30.24,30.09,12,3,29,0.00
2013-4-26,62,48,33,25,18,10,56,33,15,30.36,30.18,8,4,22,0.00
2013-4-27,64,50,36,22,16,10,44,27,12,30.38,30.28,9,4,18,0.00
2013-4-28,69,56,41,27,19,15,37,25,15,30.30,30.16,11,5,18,0.00
2013-4-29,70,57,41,27,21,12,47,27,11,30.18,30.03,11,5,23,0.00
2013-4-30,70,61,49,24,18,9,35,19,10,30.03,29.95,18,8,43,0.00
2013-5-1,55,38,30,36,24,8,94,63,20,30.42,29.99,14,6,24,0.04
2013-5-2,48,33,17,16,13,8,86,47,23,30.53,30.41,10,3,18,0.01
2013-5-3,60,43,25,15,10,1,59,30,10,30.45,30.16,9,4,18,0.00
2013-5-4,64,51,37,19,13,9,34,23,12,30.16,30.09,11,5,22,0.00
2013-5-5,61,53,47,28,20,13,44,27,20,30.19,30.11,14,6,25,0.00
2013-5-6,55,45,36,42,34,28,94,67,38,30.20,30.12,10,3,21,0.12
2013-5-7,52,42,34,41,36,29,95,80,45,30.20,30.14,11,3,17,0.10
2013-5-8,47,38,33,38,35,30,95,88,71,30.21,30.12,12,2,20,0.15
2013-5-9,56,42,35,41,36,33,95,81,48,30.29,30.18,10,3,15,0.08
2013-5-10,59,45,32,37,30,-100,85,60,30,30.40,30.27,14,4,24,0.03
2013-5-11,65,52,39,30,26,-100,59,39,20,30.45,30.39,9,5,20,0.00
2013-5-12,69,57,45,35,30,25,60,37,21,30.45,30.36,10,5,19,0.00
2013-5-13,76,62,50,37,32,29,47,35,20,30.43,30.34,16,6,29,0.00
2013-5-14,77,63,53,37,32,20,48,33,12,30.34,30.20,12,6,26,0.00
2013-5-15,72,59,49,47,36,16,57,43,25,30.24,30.11,11,4,24,0.04
2013-5-16,74,56,46,28,10,-100,37,25,16,30.19,30.11,13,6,22,0.03
2013-5-17,73,58,44,24,16,-100,39,22,8,30.19,30.10,13,6,39,0.00
2013-5-18,65,52,41,34,26,18,74,39,18,30.18,30.09,20,7,43,0.01
2013-5-19,53,43,36,34,30,24,77,61,33,30.15,30.10,12,5,23,0.01
2013-5-20,58,44,30,35,30,25,88,59,32,30.24,30.12,13,4,26,0.00
2013-5-21,66,50,33,35,30,23,88,51,19,30.24,30.13,12,4,21,0.00
2013-5-22,75,62,46,29,22,13,49,25,10,30.14,30.05,15,6,27,0.00
2013-5-23,76,64,45,23,17,9,34,18,8,30.16,30.08,17,8,38,0.00
2013-5-24,75,62,41,24,14,7,47,17,8,30.25,30.16,13,6,23,0.00
2013-5-25,77,62,43,19,14,5,34,17,7,30.25,30.17,13,5,25,0.00
2013-5-26,76,61,46,22,16,7,32,18,8,30.23,30.14,14,5,27,0.00
2013-5-27,73,60,47,21,14,9,26,17,10,30.19,30.07,13,6,27,0.00
2013-5-28,69,58,48,35,20,13,59,23,14,30.11,29.93,14,6,28,0.00
2013-5-29,60,49,38,41,32,21,93,57,23,30.06,29.96,13,5,24,0.09
2013-5-30,65,54,43,31,24,15,58,34,15,30.17,30.05,17,8,34,0.01
2013-5-31,63,52,42,28,19,5,47,30,15,30.29,30.15,12,5,24,0.00
2013-6-1,68,51,31,21,14,5,48,25,9,30.35,30.28,10,4,18,0.00
2013-6-2,80,63,42,26,17,10,31,19,8,30.31,30.15,13,5,25,0.00
2013-6-3,75,66,56,34,25,20,30,22,14,30.20,30.13,17,6,31,0.00
2013-6-4,78,65,52,34,28,22,41,26,15,30.25,30.18,14,5,28,0.00
2013-6-5,75,64,51,33,27,19,43,26,16,30.27,30.21,12,5,22,0.00
2013-6-6,78,64,51,31,25,22,36,24,13,30.28,30.21,11,5,20,0.00
2013-6-7,76,64,54,35,30,25,37,28,16,30.27,30.18,14,5,27,0.00
2013-6-8,81,67,53,37,31,27,43,28,15,30.24,30.16,11,5,23,0.00
2013-6-9,86,68,48,33,27,18,45,24,8,30.32,30.24,9,4,16,0.00
2013-6-10,88,76,64,29,22,17,24,14,8,30.28,30.19,16,7,28,0.00
2013-6-11,81,70,57,22,17,12,23,14,9,30.33,30.24,19,8,35,0.00
2013-6-12,85,74,60,25,18,9,22,13,6,30.35,30.29,16,8,29,0.00
2013-6-13,86,74,61,40,27,20,45,19,10,30.33,30.22,17,9,44,0.00
2013-6-14,81,70,54,38,23,7,39,20,6,30.27,30.20,16,6,32,0.00
2013-6-15,78,68,51,31,24,8,31,19,12,30.33,30.22,14,6,25,0.00
2013-6-16,76,64,52,45,35,28,67,34,19,30.35,30.28,14,4,28,0.02
2013-6-17,78,65,52,39,27,16,37,24,10,30.32,30.24,11,5,24,0.03
2013-6-18,82,71,52,30,19,2,29,15,5,30.27,30.15,14,7,25,0.02
2013-6-19,81,66,51,23,9,-2,25,12,4,30.18,30.08,15,6,33,0.00
2013-6-20,81,66,49,21,14,6,31,14,8,30.20,30.13,12,4,26,0.00
2013-6-22,79,75,58,22,16,11,19,11,8,30.22,30.16,14,9,28,0.00
2013-6-23,80,66,45,25,17,9,35,16,8,30.22,30.11,9,4,27,0.00
2013-6-24,77,66,56,19,14,3,21,13,6,30.20,30.14,16,6,32,0.00
2013-6-25,80,69,57,30,23,14,30,18,14,30.32,30.19,12,7,24,0.00
2013-6-26,89,78,60,33,29,26,31,18,11,30.40,30.32,11,4,19,0.00
2013-6-27,89,76,62,36,32,28,31,21,11,30.47,30.40,17,6,35,0.00
2013-6-28,91,78,58,37,30,22,35,19,8,30.47,30.37,11,5,21,0.00
2013-6-29,87,74,63,43,37,32,35,27,17,30.42,30.30,10,4,19,0.01
2013-6-30,85,74,61,42,38,34,42,29,16,30.39,30.29,11,4,24,0.01
2013-7-1,86,72,52,41,36,29,57,29,14,30.41,30.32,10,4,22,0.00
2013-7-2,84,70,57,45,35,30,63,29,16,30.40,30.28,11,4,28,0.02
2013-7-3,84,73,57,38,32,27,42,24,13,30.33,30.23,10,4,31,0.01
2013-7-4,84,72,57,40,36,32,44,28,16,30.31,30.20,8,3,18,0.00
2013-7-5,84,72,63,53,42,35,56,36,21,30.24,30.16,10,4,20,0.02
2013-7-6,81,70,61,46,43,39,57,40,26,30.29,30.22,10,4,20,0.02
2013-7-7,84,71,57,51,45,40,77,42,21,30.38,30.24,9,4,19,0.06
2013-7-8,86,69,55,49,42,30,71,42,14,30.40,30.34,14,3,22,0.00
2013-7-9,89,76,61,41,33,25,42,23,11,30.45,30.37,9,4,17,0.00
2013-7-10,87,76,67,44,35,-100,37,23,15,30.41,30.28,14,5,22,0.00
2013-7-11,85,69,56,57,46,37,90,50,23,30.35,30.28,13,4,28,0.19
2013-7-12,77,63,52,59,52,49,92,70,41,30.37,30.28,14,4,25,0.32
2013-7-13,76,65,54,61,53,49,89,67,40,30.39,30.32,10,3,19,0.07
2013-7-14,81,70,59,53,48,39,73,49,23,30.40,30.29,11,3,21,0.03
2013-7-15,83,66,52,55,48,45,90,58,29,30.34,30.23,14,4,25,0.15
2013-7-16,79,63,53,56,52,48,90,71,39,30.40,30.28,18,4,30,0.15
2013-7-17,82,66,57,55,52,49,91,64,35,30.44,30.36,14,3,20,0.64
2013-7-18,79,63,54,57,52,48,94,71,37,30.46,30.35,15,4,34,0.64
2013-7-19,78,64,54,54,50,47,87,64,38,30.43,30.31,14,5,25,0.01
2013-7-20,85,70,56,50,41,-100,73,40,12,30.34,30.22,9,4,19,0.00
2013-7-21,85,75,60,47,38,27,52,29,12,30.29,30.23,9,4,17,0.00
2013-7-22,87,74,60,44,34,18,49,27,9,30.35,30.27,10,5,21,0.00
2013-7-23,87,76,65,43,36,24,37,25,11,30.39,30.30,14,6,32,0.00
2013-7-24,79,68,57,53,44,37,83,44,29,30.42,30.32,12,3,32,0.03
2013-7-25,83,71,58,52,44,32,66,41,17,30.39,30.33,11,5,21,0.01
2013-7-26,85,72,55,47,40,32,64,34,17,30.44,30.36,9,4,19,0.03
2013-7-27,81,66,55,54,47,36,92,52,29,30.40,30.25,16,6,29,0.21
2013-7-28,60,56,54,57,53,50,96,91,77,30.30,30.23,8,3,16,0.64
2013-7-29,72,59,51,56,51,46,97,77,40,30.42,30.27,10,3,23,0.20
2013-7-30,79,64,50,50,44,35,89,53,21,30.49,30.42,18,4,24,0.16
2013-7-31,84,75,60,44,37,32,46,27,16,30.50,30.39,9,3,16,0.00
2013-8-1,65,62,56,57,47,37,94,62,36,30.46,30.35,7,4,16,0.15
2013-8-2,78,69,52,56,52,48,96,58,41,30.40,30.31,13,3,23,0.66
2013-8-3,76,62,56,56,52,47,91,70,44,30.43,30.35,9,4,17,0.14
2013-8-4,77,65,55,54,48,43,79,57,32,30.42,30.37,11,3,23,0.05
2013-8-5,76,64,54,56,49,44,84,60,35,30.40,30.32,11,3,17,0.01
2013-8-6,77,60,53,53,48,44,94,67,38,30.39,30.30,10,5,20,1.15
2013-8-7,65,56,51,52,49,46,91,77,54,30.36,30.28,10,4,21,0.25
2013-8-8,68,58,52,51,47,43,85,68,40,30.37,30.28,13,3,26,0.01
2013-8-9,72,59,47,50,43,39,79,57,37,30.39,30.33,10,4,21,0.12
2013-8-10,75,58,48,49,43,37,91,61,25,30.53,30.38,17,6,32,0.26
2013-8-11,74,61,44,47,41,38,87,53,28,30.44,30.35,10,4,17,0.20
2013-8-12,71,61,55,50,44,39,78,53,36,30.41,30.35,15,5,24,0.09
2013-8-13,78,63,46,47,39,-100,83,48,19,30.43,30.37,10,4,20,0.09
2013-8-14,79,67,57,42,32,-100,45,30,15,30.42,30.35,13,5,28,0.02
2013-8-15,82,60,60,37,12,-100,36,23,15,30.42,30.37,12,4,18,0.02
2013-8-16,85,74,63,35,24,-100,34,18,10,30.43,30.37,7,3,14,0.00
2013-8-17,82,70,56,47,38,-100,50,33,16,30.42,30.36,17,5,30,0.00
2013-8-18,80,64,56,53,45,41,70,50,29,30.42,30.36,14,4,24,0.23
2013-8-19,82,63,55,50,37,-100,67,48,25,30.42,30.32,19,5,32,0.23
2013-8-20,80,64,55,53,44,-100,79,53,28,30.39,30.33,10,4,20,0.02
2013-8-21,80,64,52,50,45,42,81,54,29,30.41,30.35,12,3,20,0.01
2013-8-22,80,64,53,56,50,45,90,62,34,30.43,30.34,10,4,22,0.24
2013-8-23,79,66,55,54,48,43,80,54,29,30.35,30.25,8,4,18,0.20
2013-8-24,71,60,54,52,46,-100,92,61,40,30.39,30.32,12,3,19,0.08
2013-8-25,63,57,52,56,53,50,95,86,72,30.44,30.37,8,2,12,0.11
2013-8-26,74,60,53,58,54,52,96,82,51,30.48,30.40,10,3,18,0.18
2013-8-27,75,59,49,57,52,47,96,78,49,30.42,30.37,6,2,12,0.04
2013-8-28,82,70,56,55,50,45,85,53,32,30.42,30.34,19,3,30,0.35
2013-8-29,80,64,56,53,49,46,79,59,32,30.45,30.40,14,4,25,0.13
2013-8-30,79,65,58,55,50,47,78,62,33,30.44,30.38,12,3,20,0.08
2013-8-31,81,63,51,56,48,-100,81,61,31,30.39,30.32,11,3,21,0.06
2013-9-1,78,62,50,56,49,45,83,64,37,30.36,30.31,8,4,20,0.12
2013-9-2,80,67,57,52,48,44,75,53,29,30.42,30.33,12,5,25,0.04
2013-9-3,82,68,59,52,47,41,62,50,26,30.42,30.37,11,4,22,0.00
2013-9-4,83,66,59,54,48,46,83,56,29,30.45,30.40,10,4,18,0.06
2013-9-5,84,72,56,54,48,44,89,47,25,30.45,30.38,9,3,23,0.61
2013-9-6,83,67,57,52,44,37,82,48,21,30.44,30.33,11,4,38,0.70
2013-9-7,82,67,59,49,42,-100,63,43,23,30.38,30.31,14,5,26,0.09
2013-9-8,76,63,53,56,49,44,90,63,32,30.36,30.24,12,3,22,0.13
2013-9-9,67,54,50,56,52,48,96,90,61,30.27,30.21,8,2,23,0.80
2013-9-10,62,54,50,56,52,49,97,95,79,30.29,30.22,6,1,10,0.22
2013-9-11,65,57,51,56,52,49,97,87,64,30.36,30.29,8,2,15,0.09
2013-9-12,68,56,46,53,49,44,95,79,53,30.37,30.29,10,2,17,0.24
2013-9-13,69,57,45,54,47,43,96,72,44,30.34,30.18,9,3,18,0.56
2013-9-14,61,53,48,51,45,-100,95,78,58,30.28,30.19,13,3,21,0.36
2013-9-15,64,54,48,49,45,42,93,74,54,30.34,30.24,8,4,18,0.12
2013-9-16,70,57,48,52,46,41,80,69,46,30.38,30.32,9,3,18,0.11
2013-9-17,74,61,51,46,43,41,74,54,32,30.34,30.16,12,4,21,0.11
2013-9-18,60,55,48,47,45,43,91,69,58,30.20,30.16,11,5,22,0.36
2013-9-19,66,54,46,48,43,37,93,69,39,30.31,30.18,11,3,18,0.35
2013-9-20,72,55,41,39,35,32,75,51,25,30.32,30.26,7,2,13,0.00
2013-9-21,72,63,53,44,37,-100,68,39,28,30.29,30.14,13,6,23,0.00
2013-9-22,61,49,37,51,43,35,94,81,54,30.14,29.97,12,4,23,0.94
2013-9-23,57,46,37,41,36,30,93,72,44,30.33,30.03,10,3,18,0.57
2013-9-24,67,50,36,38,30,20,71,49,19,30.34,30.19,6,2,11,0.01
2013-9-25,69,61,45,33,27,22,55,29,18,30.18,29.91,20,10,39,0.00
2013-9-26,68,61,53,31,22,16,36,23,15,30.01,29.95,16,8,39,0.00
2013-9-27,57,44,30,40,32,24,93,67,35,30.27,29.95,14,5,32,0.13
2013-9-28,56,39,26,31,25,-100,87,62,38,30.37,30.27,6,2,13,0.02
2013-9-29,66,50,36,30,24,19,75,40,18,30.37,30.27,12,5,23,0.00
2013-9-30,71,56,41,33,27,19,47,33,21,30.29,30.20,9,4,21,0.00
2013-10-1,67,55,46,32,27,25,48,34,23,30.24,30.20,6,2,12,0.00
2013-10-2,70,55,41,30,23,16,57,30,17,30.23,30.13,12,4,20,0.00
2013-10-3,65,53,30,33,25,19,93,35,18,30.14,29.96,16,6,33,0.00
2013-10-4,37,29,19,30,25,16,94,86,67,30.36,30.11,8,1,14,0.42
2013-10-5,43,31,21,29,24,18,94,78,48,30.47,30.36,8,2,17,0.06
2013-10-6,55,37,22,30,24,18,89,63,30,30.47,30.41,7,2,11,0.01
2013-10-7,66,48,33,36,29,23,71,51,23,30.41,30.24,6,2,13,0.01
2013-10-8,65,53,43,33,26,18,57,37,24,30.24,30.06,16,6,29,0.00
2013-10-9,61,52,43,35,23,17,64,35,19,30.11,30.04,19,6,35,0.00
2013-10-10,47,38,32,39,34,27,95,84,63,30.10,29.94,13,4,28,0.81
2013-10-11,44,38,34,35,32,28,89,78,64,30.24,30.04,12,4,21,0.03
2013-10-12,55,41,31,31,25,-100,79,57,32,30.27,30.19,8,3,18,0.01
2013-10-13,60,47,31,39,31,25,80,56,28,30.22,30.09,17,4,33,0.00
2013-10-14,49,39,30,34,30,25,90,70,39,30.26,30.09,17,5,33,0.02
2013-10-15,43,33,28,32,28,23,94,83,56,30.25,30.17,9,2,18,0.02
2013-10-16,41,32,28,32,28,23,95,87,61,30.27,30.20,6,1,11,0.27
2013-10-17,50,36,27,24,21,16,84,57,27,30.26,30.15,10,4,17,0.03
2013-10-18,43,35,28,25,19,11,80,53,31,30.32,30.15,10,3,18,0.01
2013-10-19,51,37,25,25,17,-100,71,47,28,30.32,30.24,8,2,15,0.00
2013-10-20,52,41,33,27,21,17,60,46,29,30.24,30.14,8,4,16,0.00
2013-10-21,51,39,28,28,20,8,84,49,18,30.35,30.19,7,2,13,0.00
2013-10-22,55,40,28,27,21,15,66,48,31,30.38,30.33,8,3,14,0.00
2013-10-23,59,44,33,28,24,20,67,47,26,30.35,30.28,8,3,13,0.00
2013-10-24,61,48,34,29,25,21,65,43,24,30.34,30.28,10,3,15,0.00
2013-10-25,53,43,40,38,34,28,86,72,47,30.37,30.31,11,4,22,0.00
2013-10-26,57,44,33,36,30,-100,90,63,35,30.42,30.35,7,3,16,0.00
2013-10-27,58,46,35,31,28,25,72,50,30,30.37,30.06,9,3,16,0.00
2013-10-28,55,48,39,29,20,-100,58,34,22,30.06,29.98,18,8,35,0.00
2013-10-29,49,41,30,33,23,11,94,54,22,30.06,30.00,12,5,31,0.02
2013-10-30,36,29,21,30,25,18,93,87,67,30.11,30.05,6,1,13,0.35
2013-10-31,35,30,26,27,24,22,92,79,61,30.23,30.11,7,2,12,0.08
2013-11-1,42,35,30,29,25,19,83,68,47,30.38,30.22,6,2,12,0.01
2013-11-2,55,36,25,28,20,-100,75,56,30,30.38,30.13,6,2,10,0.00
2013-11-3,52,42,30,28,21,14,82,45,28,30.13,29.90,21,6,37,0.00
2013-11-4,40,30,21,26,21,16,89,72,49,30.08,29.99,8,1,13,0.00
2013-11-5,28,22,14,22,18,9,93,84,68,30.33,30.04,5,2,10,0.06
2013-11-6,40,24,8,21,14,4,88,69,42,30.48,30.33,5,3,10,0.04
2013-11-7,50,35,22,26,22,16,80,61,36,30.49,30.28,4,2,13,0.01
2013-11-8,55,44,35,22,19,14,56,38,21,30.28,30.20,10,4,20,0.01
2013-11-9,55,43,34,23,19,-100,59,42,27,30.35,30.26,6,3,11,0.00
2013-11-10,57,45,35,24,21,16,53,39,24,30.40,30.35,9,3,15,0.00
2013-11-11,55,43,32,21,18,16,52,39,23,30.50,30.39,8,3,13,0.00
2013-11-12,56,42,28,24,20,16,63,42,25,30.57,30.50,7,3,12,0.00
2013-11-13,53,44,35,24,23,21,59,45,28,30.38,30.24,5,2,10,0.00
2013-11-14,47,38,30,28,24,13,78,58,36,30.26,30.01,8,2,15,0.00
2013-11-15,49,38,31,31,23,4,94,58,24,30.03,29.82,13,4,26,0.05
2013-11-16,39,33,29,31,27,-100,95,81,60,29.91,29.77,24,7,44,0.23
2013-11-17,45,37,30,28,25,22,80,63,40,30.28,29.90,13,4,24,0.06
2013-11-18,47,35,26,22,20,14,76,56,33,30.32,30.23,6,3,11,0.06
2013-11-19,47,38,30,31,24,18,66,58,41,30.23,30.05,7,2,14,0.00
2013-11-20,46,36,31,33,29,25,94,78,48,30.09,29.99,6,1,11,0.04
2013-11-21,40,34,31,36,32,29,95,92,82,30.24,30.03,6,1,10,0.28
2013-11-22,30,27,25,29,26,24,95,94,91,30.29,30.24,7,1,9,0.01
2013-11-23,36,30,26,34,28,-100,96,95,90,30.30,30.21,3,0,6,0.06
2013-11-24,32,29,26,31,28,25,97,96,94,30.22,30.12,3,0,6,0.01
2013-11-25,32,26,18,29,24,16,96,93,87,30.37,30.14,4,0,9,0.01
2013-11-26,33,24,14,30,22,11,96,90,83,30.42,30.37,4,1,8,0.04
2013-11-27,38,25,19,31,22,16,95,88,75,30.39,30.24,4,1,7,0.05
2013-11-28,41,28,19,31,24,17,95,84,64,30.29,30.22,5,1,8,0.01
2013-11-29,43,29,20,27,22,17,93,78,48,30.37,30.29,7,2,11,0.01
2013-11-30,43,28,20,29,21,-100,94,77,53,30.37,30.31,5,1,11,0.01
2013-12-1,35,27,20,28,23,18,94,84,62,30.39,30.27,9,2,14,0.01
2013-12-2,46,35,23,27,22,18,92,64,38,30.28,29.93,11,2,20,0.01
2013-12-3,46,39,31,28,20,16,67,47,36,29.95,29.64,20,8,36,0.00
2013-12-4,39,19,-1,28,14,-5,91,81,56,29.96,29.60,18,5,40,0.00
2013-12-5,18,4,-8,12,0,-13,86,82,71,29.96,29.87,5,1,10,0.10
2013-12-6,17,6,-4,11,1,-9,86,80,73,30.07,29.93,5,1,9,0.03
2013-12-7,22,15,5,17,9,-100,90,81,66,30.06,29.76,13,2,22,0.00
2013-12-8,20,12,0,16,5,-6,88,75,50,30.00,29.72,15,5,26,0.00
2013-12-9,12,3,-6,5,-4,-11,85,75,62,30.35,30.00,6,2,11,0.00
2013-12-10,26,9,-6,12,1,-10,85,71,51,30.35,30.22,5,2,9,0.00
2013-12-11,35,17,3,18,8,-1,87,70,38,30.46,30.28,5,1,8,0.01
2013-12-12,38,20,9,19,10,3,85,65,38,30.45,30.19,5,1,9,0.02
2013-12-13,36,21,12,16,11,7,83,65,41,30.26,30.09,7,2,13,0.02
2013-12-14,29,16,6,16,8,-100,90,74,52,30.44,30.26,6,1,9,0.01
2013-12-15,40,26,10,20,14,6,87,64,43,30.44,30.40,7,2,13,0.00
2013-12-16,45,30,20,21,17,13,74,59,34,30.47,30.41,5,2,9,0.00
2013-12-17,45,29,19,20,16,12,75,60,34,30.48,30.35,5,1,9,0.00
2013-12-18,49,37,29,23,16,10,58,44,22,30.35,29.99,6,2,14,0.00
2013-12-19,44,36,28,27,21,14,86,56,34,29.99,29.84,12,2,21,0.00
2013-12-20,33,28,23,29,25,21,94,88,69,29.89,29.84,6,1,11,0.06
2013-12-21,27,22,18,23,18,-100,92,88,81,30.00,29.77,6,1,12,0.01
2013-12-22,28,20,10,16,13,7,90,75,57,30.31,30.00,7,2,11,0.02
2013-12-23,34,24,18,16,14,11,83,65,44,30.44,30.30,6,2,12,0.01
2013-12-24,42,26,13,25,18,9,88,73,47,30.40,30.27,11,3,22,0.01
2013-12-25,35,19,8,9,5,-1,88,59,22,30.45,30.40,7,2,12,0.01
2013-12-26,39,24,11,12,7,2,69,49,29,30.44,30.36,6,2,10,0.01
2013-12-27,42,28,16,18,15,11,82,60,35,30.42,30.27,4,2,8,0.00
2013-12-28,42,29,20,22,16,-100,80,62,42,30.27,30.08,6,2,12,0.00
2013-12-29,26,20,12,20,14,6,89,79,66,30.26,30.11,7,2,14,0.00
2013-12-30,34,23,12,12,8,4,86,55,32,30.35,30.22,7,3,13,0.00
2013-12-31,44,33,25,27,19,11,85,57,42,30.33,30.22,8,3,13,0.00
2014-1-1,38,30,22,27,15,3,84,55,26,30.36,30.19,10,3,22,0.00
2014-1-2,45,30,16,8,1,-8,50,30,10,30.37,30.26,7,3,12,0.00